sensor_id;sensor_type;location;lat;lon;timestamp;pressure;altitude;pressure_sealevel;temperature;humidity
75745;BME280;64359;51.366;-0.222;2023-03-11T00:00:00;100640.78;;;21.71;42.38
75745;BME280;64359;51.366;-0.222;2023-03-11T00:01:06;100647.92;;;21.71;42.48
75745;BME280;64359;51.366;-0.222;2023-03-11T00:02:11;100654.64;;;21.71;42.38
75745;BME280;64359;51.366;-0.222;2023-03-11T00:03:17;100663.82;;;21.71;42.32
75745;BME280;64359;51.366;-0.222;2023-03-11T00:04:21;100665.11;;;21.71;42.32
75745;BME280;64359;51.366;-0.222;2023-03-11T00:05:28;100671.40;;;21.71;42.34
75745;BME280;64359;51.366;-0.222;2023-03-11T00:06:34;100671.81;;;21.71;42.29
75745;BME280;64359;51.366;-0.222;2023-03-11T00:07:39;100674.11;;;21.71;42.45
75745;BME280;64359;51.366;-0.222;2023-03-11T00:08:43;100671.74;;;21.71;42.31
75745;BME280;64359;51.366;-0.222;2023-03-11T00:09:48;100675.87;;;21.72;42.39
75745;BME280;64359;51.366;-0.222;2023-03-11T00:10:54;100679.00;;;21.71;42.37
75745;BME280;64359;51.366;-0.222;2023-03-11T00:12:01;100683.51;;;21.71;42.35
75745;BME280;64359;51.366;-0.222;2023-03-11T00:13:06;100689.22;;;21.72;42.25
75745;BME280;64359;51.366;-0.222;2023-03-11T00:14:11;100689.42;;;21.72;42.21
75745;BME280;64359;51.366;-0.222;2023-03-11T00:15:16;100685.08;;;21.72;42.32
75745;BME280;64359;51.366;-0.222;2023-03-11T00:16:20;100681.80;;;21.72;42.30
75745;BME280;64359;51.366;-0.222;2023-03-11T00:17:24;100679.80;;;21.72;42.30
75745;BME280;64359;51.366;-0.222;2023-03-11T00:18:29;100678.84;;;21.72;42.27
75745;BME280;64359;51.366;-0.222;2023-03-11T00:19:34;100681.71;;;21.73;42.26
75745;BME280;64359;51.366;-0.222;2023-03-11T00:20:40;100690.69;;;21.73;42.19
75745;BME280;64359;51.366;-0.222;2023-03-11T00:21:45;100692.44;;;21.72;42.19
75745;BME280;64359;51.366;-0.222;2023-03-11T00:22:49;100694.19;;;21.72;42.17
75745;BME280;64359;51.366;-0.222;2023-03-11T00:23:54;100689.48;;;21.73;42.14
75745;BME280;64359;51.366;-0.222;2023-03-11T00:25:00;100690.02;;;21.73;42.16
75745;BME280;64359;51.366;-0.222;2023-03-11T00:26:04;100687.85;;;21.73;42.10
75745;BME280;64359;51.366;-0.222;2023-03-11T00:27:09;100686.19;;;21.73;42.17
75745;BME280;64359;51.366;-0.222;2023-03-11T00:28:14;100685.30;;;21.73;42.10
75745;BME280;64359;51.366;-0.222;2023-03-11T00:29:19;100687.85;;;21.73;42.07
75745;BME280;64359;51.366;-0.222;2023-03-11T00:30:24;100684.52;;;21.72;42.03
75745;BME280;64359;51.366;-0.222;2023-03-11T00:31:29;100680.30;;;21.72;42.07
75745;BME280;64359;51.366;-0.222;2023-03-11T00:32:33;100673.41;;;21.73;42.02
75745;BME280;64359;51.366;-0.222;2023-03-11T00:33:38;100674.09;;;21.73;42.02
75745;BME280;64359;51.366;-0.222;2023-03-11T00:34:43;100674.26;;;21.73;42.02
75745;BME280;64359;51.366;-0.222;2023-03-11T00:35:48;100670.38;;;21.72;42.04
75745;BME280;64359;51.366;-0.222;2023-03-11T00:36:52;100668.37;;;21.72;42.04
75745;BME280;64359;51.366;-0.222;2023-03-11T00:37:58;100663.66;;;21.72;41.99
75745;BME280;64359;51.366;-0.222;2023-03-11T00:39:04;100659.73;;;21.72;42.04
75745;BME280;64359;51.366;-0.222;2023-03-11T00:40:13;100653.94;;;21.72;42.03
75745;BME280;64359;51.366;-0.222;2023-03-11T00:41:17;100650.21;;;21.72;41.91
75745;BME280;64359;51.366;-0.222;2023-03-11T00:42:22;100654.30;;;21.72;42.08
75745;BME280;64359;51.366;-0.222;2023-03-11T00:43:26;100657.56;;;21.72;41.93
75745;BME280;64359;51.366;-0.222;2023-03-11T00:44:30;100661.86;;;21.72;42.06
75745;BME280;64359;51.366;-0.222;2023-03-11T00:45:35;100659.90;;;21.72;41.98
75745;BME280;64359;51.366;-0.222;2023-03-11T00:46:39;100660.02;;;21.73;41.97
75745;BME280;64359;51.366;-0.222;2023-03-11T00:47:44;100650.85;;;21.72;41.96
75745;BME280;64359;51.366;-0.222;2023-03-11T00:48:50;100646.17;;;21.72;41.88
75745;BME280;64359;51.366;-0.222;2023-03-11T00:49:54;100643.13;;;21.72;41.92
75745;BME280;64359;51.366;-0.222;2023-03-11T00:50:59;100640.88;;;21.72;42.01
75745;BME280;64359;51.366;-0.222;2023-03-11T00:52:03;100640.59;;;21.72;41.91
75745;BME280;64359;51.366;-0.222;2023-03-11T00:53:09;100636.58;;;21.72;42.02
75745;BME280;64359;51.366;-0.222;2023-03-11T00:54:13;100638.38;;;21.72;41.88
75745;BME280;64359;51.366;-0.222;2023-03-11T00:55:19;100636.92;;;21.72;41.92
75745;BME280;64359;51.366;-0.222;2023-03-11T00:56:24;100639.55;;;21.73;41.88
75745;BME280;64359;51.366;-0.222;2023-03-11T00:57:28;100639.09;;;21.72;41.86
75745;BME280;64359;51.366;-0.222;2023-03-11T00:58:33;100643.59;;;21.72;41.78
75745;BME280;64359;51.366;-0.222;2023-03-11T00:59:37;100650.44;;;21.73;41.87
75745;BME280;64359;51.366;-0.222;2023-03-11T01:00:42;100652.27;;;21.73;41.92
75745;BME280;64359;51.366;-0.222;2023-03-11T01:01:46;100654.85;;;21.72;41.94
75745;BME280;64359;51.366;-0.222;2023-03-11T01:02:51;100655.73;;;21.72;41.81
75745;BME280;64359;51.366;-0.222;2023-03-11T01:03:55;100655.15;;;21.73;41.92
75745;BME280;64359;51.366;-0.222;2023-03-11T01:05:00;100649.73;;;21.73;41.86
75745;BME280;64359;51.366;-0.222;2023-03-11T01:06:05;100650.43;;;21.73;41.86
75745;BME280;64359;51.366;-0.222;2023-03-11T01:07:09;100651.14;;;21.73;41.91
75745;BME280;64359;51.366;-0.222;2023-03-11T01:08:14;100655.31;;;21.73;41.82
75745;BME280;64359;51.366;-0.222;2023-03-11T01:09:18;100657.32;;;21.73;41.83
75745;BME280;64359;51.366;-0.222;2023-03-11T01:10:22;100657.95;;;21.73;41.87
75745;BME280;64359;51.366;-0.222;2023-03-11T01:11:27;100659.69;;;21.73;41.76
75745;BME280;64359;51.366;-0.222;2023-03-11T01:12:32;100660.40;;;21.73;41.80
75745;BME280;64359;51.366;-0.222;2023-03-11T01:13:37;100659.86;;;21.72;41.79
75745;BME280;64359;51.366;-0.222;2023-03-11T01:14:42;100664.70;;;21.73;41.88
75745;BME280;64359;51.366;-0.222;2023-03-11T01:15:46;100664.70;;;21.73;41.79
75745;BME280;64359;51.366;-0.222;2023-03-11T01:16:51;100661.69;;;21.72;41.81
75745;BME280;64359;51.366;-0.222;2023-03-11T01:17:57;100661.52;;;21.72;41.80
75745;BME280;64359;51.366;-0.222;2023-03-11T01:19:01;100659.15;;;21.72;41.76
75745;BME280;64359;51.366;-0.222;2023-03-11T01:20:06;100658.77;;;21.72;41.78
75745;BME280;64359;51.366;-0.222;2023-03-11T01:21:12;100659.52;;;21.72;41.76
75745;BME280;64359;51.366;-0.222;2023-03-11T01:22:17;100655.56;;;21.72;41.70
75745;BME280;64359;51.366;-0.222;2023-03-11T01:23:21;100660.98;;;21.72;41.80
75745;BME280;64359;51.366;-0.222;2023-03-11T01:24:26;100656.30;;;21.72;41.76
75745;BME280;64359;51.366;-0.222;2023-03-11T01:25:30;100659.90;;;21.72;41.73
75745;BME280;64359;51.366;-0.222;2023-03-11T01:26:34;100658.81;;;21.72;41.71
75745;BME280;64359;51.366;-0.222;2023-03-11T01:27:39;100661.48;;;21.72;41.71
75745;BME280;64359;51.366;-0.222;2023-03-11T01:28:43;100661.20;;;21.72;41.80
75745;BME280;64359;51.366;-0.222;2023-03-11T01:29:48;100662.40;;;21.72;41.70
75745;BME280;64359;51.366;-0.222;2023-03-11T01:30:52;100662.91;;;21.73;41.69
75745;BME280;64359;51.366;-0.222;2023-03-11T01:31:56;100662.40;;;21.73;41.67
75745;BME280;64359;51.366;-0.222;2023-03-11T01:33:01;100660.80;;;21.72;41.62
75745;BME280;64359;51.366;-0.222;2023-03-11T01:34:06;100659.31;;;21.73;41.68
75745;BME280;64359;51.366;-0.222;2023-03-11T01:35:13;100655.77;;;21.72;41.67
75745;BME280;64359;51.366;-0.222;2023-03-11T01:36:17;100652.17;;;21.72;41.58
75745;BME280;64359;51.366;-0.222;2023-03-11T01:37:22;100649.88;;;21.72;41.55
75745;BME280;64359;51.366;-0.222;2023-03-11T01:38:26;100647.91;;;21.71;41.56
75745;BME280;64359;51.366;-0.222;2023-03-11T01:39:31;100646.46;;;21.71;41.56
75745;BME280;64359;51.366;-0.222;2023-03-11T01:40:37;100646.88;;;21.71;41.61
75745;BME280;64359;51.366;-0.222;2023-03-11T01:41:42;100646.38;;;21.71;41.53
75745;BME280;64359;51.366;-0.222;2023-03-11T01:42:46;100646.29;;;21.71;41.70
75745;BME280;64359;51.366;-0.222;2023-03-11T01:43:54;100649.59;;;21.71;41.64
75745;BME280;64359;51.366;-0.222;2023-03-11T01:44:58;100647.08;;;21.71;41.60
75745;BME280;64359;51.366;-0.222;2023-03-11T01:46:16;100651.96;;;21.71;41.62
75745;BME280;64359;51.366;-0.222;2023-03-11T01:47:38;100649.13;;;21.70;41.49
75745;BME280;64359;51.366;-0.222;2023-03-11T01:48:46;100648.16;;;21.69;41.45
75745;BME280;64359;51.366;-0.222;2023-03-11T01:49:51;100646.36;;;21.69;41.63
75745;BME280;64359;51.366;-0.222;2023-03-11T01:50:55;100643.86;;;21.69;41.56
75745;BME280;64359;51.366;-0.222;2023-03-11T01:52:02;100643.27;;;21.69;41.51
75745;BME280;64359;51.366;-0.222;2023-03-11T01:53:09;100639.14;;;21.69;41.58
75745;BME280;64359;51.366;-0.222;2023-03-11T01:54:16;100639.69;;;21.69;41.63
75745;BME280;64359;51.366;-0.222;2023-03-11T01:55:21;100638.52;;;21.69;41.44
75745;BME280;64359;51.366;-0.222;2023-03-11T01:56:26;100641.10;;;21.68;41.70
75745;BME280;64359;51.366;-0.222;2023-03-11T01:57:31;100643.60;;;21.68;41.58
75745;BME280;64359;51.366;-0.222;2023-03-11T01:58:38;100640.77;;;21.68;41.58
75745;BME280;64359;51.366;-0.222;2023-03-11T01:59:50;100638.55;;;21.68;41.49
75745;BME280;64359;51.366;-0.222;2023-03-11T02:00:55;100637.85;;;21.68;41.47
75745;BME280;64359;51.366;-0.222;2023-03-11T02:02:05;100636.92;;;21.68;41.55
75745;BME280;64359;51.366;-0.222;2023-03-11T02:03:16;100637.52;;;21.68;41.47
75745;BME280;64359;51.366;-0.222;2023-03-11T02:04:21;100640.39;;;21.68;41.51
75745;BME280;64359;51.366;-0.222;2023-03-11T02:05:26;100638.80;;;21.68;41.44
75745;BME280;64359;51.366;-0.222;2023-03-11T02:06:32;100646.14;;;21.68;41.46
75745;BME280;64359;51.366;-0.222;2023-03-11T02:07:38;100641.48;;;21.68;41.50
75745;BME280;64359;51.366;-0.222;2023-03-11T02:08:44;100644.98;;;21.68;41.53
75745;BME280;64359;51.366;-0.222;2023-03-11T02:09:49;100644.77;;;21.68;41.52
75745;BME280;64359;51.366;-0.222;2023-03-11T02:10:54;100643.48;;;21.68;41.48
75745;BME280;64359;51.366;-0.222;2023-03-11T02:11:58;100643.48;;;21.68;41.51
75745;BME280;64359;51.366;-0.222;2023-03-11T02:13:03;100642.77;;;21.68;41.52
75745;BME280;64359;51.366;-0.222;2023-03-11T02:14:09;100642.52;;;21.68;41.47
75745;BME280;64359;51.366;-0.222;2023-03-11T02:15:13;100643.02;;;21.69;41.43
75745;BME280;64359;51.366;-0.222;2023-03-11T02:16:18;100641.73;;;21.69;41.38
75745;BME280;64359;51.366;-0.222;2023-03-11T02:17:22;100639.43;;;21.68;41.42
75745;BME280;64359;51.366;-0.222;2023-03-11T02:18:27;100642.65;;;21.69;41.44
75745;BME280;64359;51.366;-0.222;2023-03-11T02:19:39;100637.98;;;21.68;41.38
75745;BME280;64359;51.366;-0.222;2023-03-11T02:20:48;100633.92;;;21.68;41.31
75745;BME280;64359;51.366;-0.222;2023-03-11T02:21:56;100630.16;;;21.68;41.44
75745;BME280;64359;51.366;-0.222;2023-03-11T02:23:01;100626.58;;;21.67;41.44
75745;BME280;64359;51.366;-0.222;2023-03-11T02:24:12;100622.27;;;21.67;41.46
75745;BME280;64359;51.366;-0.222;2023-03-11T02:25:26;100619.81;;;21.66;41.37
75745;BME280;64359;51.366;-0.222;2023-03-11T02:26:38;100618.93;;;21.66;41.33
75745;BME280;64359;51.366;-0.222;2023-03-11T02:27:47;100617.19;;;21.66;41.43
75745;BME280;64359;51.366;-0.222;2023-03-11T02:28:53;100615.89;;;21.66;41.37
75745;BME280;64359;51.366;-0.222;2023-03-11T02:30:00;100617.14;;;21.66;41.42
75745;BME280;64359;51.366;-0.222;2023-03-11T02:31:05;100616.80;;;21.66;41.47
75745;BME280;64359;51.366;-0.222;2023-03-11T02:32:10;100616.98;;;21.66;41.46
75745;BME280;64359;51.366;-0.222;2023-03-11T02:33:15;100617.18;;;21.66;41.43
75745;BME280;64359;51.366;-0.222;2023-03-11T02:34:24;100618.44;;;21.66;41.35
75745;BME280;64359;51.366;-0.222;2023-03-11T02:35:29;100621.36;;;21.66;41.36
75745;BME280;64359;51.366;-0.222;2023-03-11T02:36:36;100625.15;;;21.66;41.30
75745;BME280;64359;51.366;-0.222;2023-03-11T02:37:46;100624.95;;;21.66;41.35
75745;BME280;64359;51.366;-0.222;2023-03-11T02:38:51;100623.52;;;21.66;41.43
75745;BME280;64359;51.366;-0.222;2023-03-11T02:40:15;100623.86;;;21.66;41.32
75745;BME280;64359;51.366;-0.222;2023-03-11T02:41:33;100617.34;;;21.65;41.38
75745;BME280;64359;51.366;-0.222;2023-03-11T02:42:38;100616.47;;;21.64;41.34
75745;BME280;64359;51.366;-0.222;2023-03-11T02:43:45;100618.56;;;21.65;41.32
75745;BME280;64359;51.366;-0.222;2023-03-11T02:44:54;100612.02;;;21.65;41.29
75745;BME280;64359;51.366;-0.222;2023-03-11T02:46:00;100607.75;;;21.65;41.25
75745;BME280;64359;51.366;-0.222;2023-03-11T02:47:06;100605.08;;;21.64;41.32
75745;BME280;64359;51.366;-0.222;2023-03-11T02:48:12;100603.75;;;21.65;41.30
75745;BME280;64359;51.366;-0.222;2023-03-11T02:49:17;100601.25;;;21.65;41.23
75745;BME280;64359;51.366;-0.222;2023-03-11T02:50:24;100600.70;;;21.65;41.25
75745;BME280;64359;51.366;-0.222;2023-03-11T02:51:29;100599.79;;;21.65;41.19
75745;BME280;64359;51.366;-0.222;2023-03-11T02:52:34;100600.62;;;21.65;41.24
75745;BME280;64359;51.366;-0.222;2023-03-11T02:53:43;100597.79;;;21.65;41.24
75745;BME280;64359;51.366;-0.222;2023-03-11T02:54:49;100595.95;;;21.65;41.20
75745;BME280;64359;51.366;-0.222;2023-03-11T02:55:53;100594.50;;;21.65;41.25
75745;BME280;64359;51.366;-0.222;2023-03-11T02:56:57;100594.08;;;21.66;41.24
75745;BME280;64359;51.366;-0.222;2023-03-11T02:58:02;100593.70;;;21.66;41.17
75745;BME280;64359;51.366;-0.222;2023-03-11T02:59:06;100585.27;;;21.65;41.24
75745;BME280;64359;51.366;-0.222;2023-03-11T03:00:12;100590.62;;;21.66;41.17
75745;BME280;64359;51.366;-0.222;2023-03-11T03:01:18;100590.48;;;21.66;41.24
75745;BME280;64359;51.366;-0.222;2023-03-11T03:02:23;100592.08;;;21.66;41.14
75745;BME280;64359;51.366;-0.222;2023-03-11T03:03:27;100594.79;;;21.66;41.28
75745;BME280;64359;51.366;-0.222;2023-03-11T03:04:31;100594.75;;;21.66;41.14
75745;BME280;64359;51.366;-0.222;2023-03-11T03:05:36;100594.91;;;21.66;41.16
75745;BME280;64359;51.366;-0.222;2023-03-11T03:06:40;100594.41;;;21.66;41.03
75745;BME280;64359;51.366;-0.222;2023-03-11T03:07:44;100596.00;;;21.66;41.15
75745;BME280;64359;51.366;-0.222;2023-03-11T03:08:49;100597.63;;;21.66;41.07
75745;BME280;64359;51.366;-0.222;2023-03-11T03:09:54;100601.96;;;21.66;41.11
75745;BME280;64359;51.366;-0.222;2023-03-11T03:10:58;100597.50;;;21.66;40.99
75745;BME280;64359;51.366;-0.222;2023-03-11T03:12:03;100597.88;;;21.65;41.13
75745;BME280;64359;51.366;-0.222;2023-03-11T03:13:08;100590.15;;;21.65;41.10
75745;BME280;64359;51.366;-0.222;2023-03-11T03:14:12;100589.77;;;21.65;41.07
75745;BME280;64359;51.366;-0.222;2023-03-11T03:15:17;100591.58;;;21.65;41.11
75745;BME280;64359;51.366;-0.222;2023-03-11T03:16:21;100592.58;;;21.66;41.07
75745;BME280;64359;51.366;-0.222;2023-03-11T03:17:26;100590.52;;;21.65;40.95
75745;BME280;64359;51.366;-0.222;2023-03-11T03:18:30;100589.91;;;21.66;41.04
75745;BME280;64359;51.366;-0.222;2023-03-11T03:19:34;100593.33;;;21.66;41.06
75745;BME280;64359;51.366;-0.222;2023-03-11T03:20:39;100593.38;;;21.66;41.05
75745;BME280;64359;51.366;-0.222;2023-03-11T03:21:43;100595.33;;;21.66;40.99
75745;BME280;64359;51.366;-0.222;2023-03-11T03:22:48;100594.78;;;21.66;40.96
75745;BME280;64359;51.366;-0.222;2023-03-11T03:23:53;100594.48;;;21.65;40.94
75745;BME280;64359;51.366;-0.222;2023-03-11T03:24:57;100595.74;;;21.65;40.99
75745;BME280;64359;51.366;-0.222;2023-03-11T03:26:02;100595.95;;;21.65;41.05
75745;BME280;64359;51.366;-0.222;2023-03-11T03:27:07;100598.12;;;21.65;40.97
75745;BME280;64359;51.366;-0.222;2023-03-11T03:28:11;100598.66;;;21.65;41.04
75745;BME280;64359;51.366;-0.222;2023-03-11T03:29:16;100601.34;;;21.66;41.04
75745;BME280;64359;51.366;-0.222;2023-03-11T03:30:20;100596.83;;;21.65;40.94
75745;BME280;64359;51.366;-0.222;2023-03-11T03:31:25;100596.83;;;21.65;40.98
75745;BME280;64359;51.366;-0.222;2023-03-11T03:32:29;100590.48;;;21.65;40.98
75745;BME280;64359;51.366;-0.222;2023-03-11T03:33:33;100588.45;;;21.66;40.93
75745;BME280;64359;51.366;-0.222;2023-03-11T03:34:38;100589.23;;;21.65;40.88
75745;BME280;64359;51.366;-0.222;2023-03-11T03:35:43;100584.35;;;21.65;40.97
75745;BME280;64359;51.366;-0.222;2023-03-11T03:36:48;100584.19;;;21.65;40.94
75745;BME280;64359;51.366;-0.222;2023-03-11T03:37:52;100582.94;;;21.65;40.94
75745;BME280;64359;51.366;-0.222;2023-03-11T03:38:57;100583.35;;;21.65;40.91
75745;BME280;64359;51.366;-0.222;2023-03-11T03:40:02;100584.39;;;21.65;40.93
75745;BME280;64359;51.366;-0.222;2023-03-11T03:41:11;100586.15;;;21.65;40.88
75745;BME280;64359;51.366;-0.222;2023-03-11T03:42:16;100585.07;;;21.66;40.90
75745;BME280;64359;51.366;-0.222;2023-03-11T03:43:20;100579.65;;;21.65;40.93
75745;BME280;64359;51.366;-0.222;2023-03-11T03:44:25;100582.18;;;21.65;40.91
75745;BME280;64359;51.366;-0.222;2023-03-11T03:45:29;100579.19;;;21.65;40.94
75745;BME280;64359;51.366;-0.222;2023-03-11T03:46:34;100577.72;;;21.65;40.92
75745;BME280;64359;51.366;-0.222;2023-03-11T03:47:40;100580.10;;;21.65;40.88
75745;BME280;64359;51.366;-0.222;2023-03-11T03:48:44;100574.64;;;21.65;40.87
75745;BME280;64359;51.366;-0.222;2023-03-11T03:49:49;100573.93;;;21.65;40.80
75745;BME280;64359;51.366;-0.222;2023-03-11T03:50:53;100570.84;;;21.65;40.81
75745;BME280;64359;51.366;-0.222;2023-03-11T03:51:57;100571.71;;;21.65;40.93
75745;BME280;64359;51.366;-0.222;2023-03-11T03:53:02;100568.50;;;21.65;40.87
75745;BME280;64359;51.366;-0.222;2023-03-11T03:54:06;100567.63;;;21.65;40.90
75745;BME280;64359;51.366;-0.222;2023-03-11T03:55:11;100569.05;;;21.65;40.80
75745;BME280;64359;51.366;-0.222;2023-03-11T03:56:16;100569.21;;;21.65;40.78
75745;BME280;64359;51.366;-0.222;2023-03-11T03:57:21;100567.42;;;21.65;40.82
75745;BME280;64359;51.366;-0.222;2023-03-11T03:58:25;100570.05;;;21.64;40.78
75745;BME280;64359;51.366;-0.222;2023-03-11T03:59:29;100572.38;;;21.64;40.85
75745;BME280;64359;51.366;-0.222;2023-03-11T04:00:34;100571.66;;;21.64;40.80
75745;BME280;64359;51.366;-0.222;2023-03-11T04:01:39;100567.42;;;21.65;40.85
75745;BME280;64359;51.366;-0.222;2023-03-11T04:02:43;100566.41;;;21.64;40.85
75745;BME280;64359;51.366;-0.222;2023-03-11T04:03:47;100564.55;;;21.65;40.90
75745;BME280;64359;51.366;-0.222;2023-03-11T04:04:52;100562.95;;;21.65;40.80
75745;BME280;64359;51.366;-0.222;2023-03-11T04:06:06;100565.79;;;21.65;40.78
75745;BME280;64359;51.366;-0.222;2023-03-11T04:07:10;100568.92;;;21.65;40.78
75745;BME280;64359;51.366;-0.222;2023-03-11T04:08:15;100570.59;;;21.64;40.86
75745;BME280;64359;51.366;-0.222;2023-03-11T04:09:19;100572.09;;;21.64;40.74
75745;BME280;64359;51.366;-0.222;2023-03-11T04:10:24;100571.38;;;21.64;40.91
75745;BME280;64359;51.366;-0.222;2023-03-11T04:11:28;100571.92;;;21.63;40.74
75745;BME280;64359;51.366;-0.222;2023-03-11T04:12:33;100569.59;;;21.64;40.83
75745;BME280;64359;51.366;-0.222;2023-03-11T04:13:37;100570.88;;;21.63;40.79
75745;BME280;64359;51.366;-0.222;2023-03-11T04:14:42;100572.12;;;21.64;40.78
75745;BME280;64359;51.366;-0.222;2023-03-11T04:15:47;100578.84;;;21.63;40.68
75745;BME280;64359;51.366;-0.222;2023-03-11T04:16:51;100579.72;;;21.64;40.72
75745;BME280;64359;51.366;-0.222;2023-03-11T04:17:55;100582.22;;;21.64;40.71
75745;BME280;64359;51.366;-0.222;2023-03-11T04:19:00;100586.22;;;21.64;40.67
75745;BME280;64359;51.366;-0.222;2023-03-11T04:20:05;100586.89;;;21.64;40.73
75745;BME280;64359;51.366;-0.222;2023-03-11T04:21:11;100587.14;;;21.63;40.76
75745;BME280;64359;51.366;-0.222;2023-03-11T04:22:15;100585.60;;;21.64;40.67
75745;BME280;64359;51.366;-0.222;2023-03-11T04:23:20;100585.84;;;21.64;40.75
75745;BME280;64359;51.366;-0.222;2023-03-11T04:24:24;100588.93;;;21.64;40.71
75745;BME280;64359;51.366;-0.222;2023-03-11T04:25:28;100589.40;;;21.64;40.68
75745;BME280;64359;51.366;-0.222;2023-03-11T04:26:33;100594.48;;;21.64;40.69
75745;BME280;64359;51.366;-0.222;2023-03-11T04:27:37;100594.48;;;21.64;40.63
75745;BME280;64359;51.366;-0.222;2023-03-11T04:28:44;100595.48;;;21.63;40.62
75745;BME280;64359;51.366;-0.222;2023-03-11T04:29:48;100600.70;;;21.64;40.53
75745;BME280;64359;51.366;-0.222;2023-03-11T04:30:53;100598.94;;;21.63;40.60
75745;BME280;64359;51.366;-0.222;2023-03-11T04:31:57;100596.27;;;21.63;40.66
75745;BME280;64359;51.366;-0.222;2023-03-11T04:33:02;100600.06;;;21.63;40.66
75745;BME280;64359;51.366;-0.222;2023-03-11T04:34:06;100602.73;;;21.63;40.64
75745;BME280;64359;51.366;-0.222;2023-03-11T04:35:10;100601.19;;;21.62;40.54
75745;BME280;64359;51.366;-0.222;2023-03-11T04:36:15;100600.85;;;21.62;40.67
75745;BME280;64359;51.366;-0.222;2023-03-11T04:37:19;100602.98;;;21.62;40.63
75745;BME280;64359;51.366;-0.222;2023-03-11T04:38:23;100603.90;;;21.62;40.64
75745;BME280;64359;51.366;-0.222;2023-03-11T04:39:28;100607.90;;;21.62;40.59
75745;BME280;64359;51.366;-0.222;2023-03-11T04:40:32;100610.08;;;21.62;40.58
75745;BME280;64359;51.366;-0.222;2023-03-11T04:41:37;100615.12;;;21.62;40.67
75745;BME280;64359;51.366;-0.222;2023-03-11T04:42:41;100615.58;;;21.62;40.69
75745;BME280;64359;51.366;-0.222;2023-03-11T04:43:45;100619.70;;;21.62;40.61
75745;BME280;64359;51.366;-0.222;2023-03-11T04:44:50;100620.08;;;21.62;40.59
75745;BME280;64359;51.366;-0.222;2023-03-11T04:45:54;100621.75;;;21.61;40.55
75745;BME280;64359;51.366;-0.222;2023-03-11T04:46:58;100623.25;;;21.61;40.61
75745;BME280;64359;51.366;-0.222;2023-03-11T04:48:03;100618.66;;;21.61;40.64
75745;BME280;64359;51.366;-0.222;2023-03-11T04:49:07;100618.63;;;21.62;40.60
75745;BME280;64359;51.366;-0.222;2023-03-11T04:50:12;100618.16;;;21.61;40.51
75745;BME280;64359;51.366;-0.222;2023-03-11T04:51:16;100615.03;;;21.61;40.73
75745;BME280;64359;51.366;-0.222;2023-03-11T04:52:21;100615.79;;;21.61;40.62
75745;BME280;64359;51.366;-0.222;2023-03-11T04:53:25;100617.04;;;21.62;40.56
75745;BME280;64359;51.366;-0.222;2023-03-11T04:54:29;100619.61;;;21.61;40.62
75745;BME280;64359;51.366;-0.222;2023-03-11T04:55:34;100627.34;;;21.61;40.54
75745;BME280;64359;51.366;-0.222;2023-03-11T04:56:38;100632.83;;;21.61;40.59
75745;BME280;64359;51.366;-0.222;2023-03-11T04:57:43;100634.42;;;21.61;40.61
75745;BME280;64359;51.366;-0.222;2023-03-11T04:58:47;100632.41;;;21.61;40.42
75745;BME280;64359;51.366;-0.222;2023-03-11T04:59:52;100632.92;;;21.62;40.60
75745;BME280;64359;51.366;-0.222;2023-03-11T05:00:56;100631.91;;;21.61;40.56
75745;BME280;64359;51.366;-0.222;2023-03-11T05:02:00;100635.50;;;21.61;40.57
75745;BME280;64359;51.366;-0.222;2023-03-11T05:03:04;100635.01;;;21.61;40.58
75745;BME280;64359;51.366;-0.222;2023-03-11T05:04:09;100632.83;;;21.61;40.48
75745;BME280;64359;51.366;-0.222;2023-03-11T05:05:14;100631.00;;;21.61;40.55
75745;BME280;64359;51.366;-0.222;2023-03-11T05:06:20;100632.12;;;21.61;40.52
75745;BME280;64359;51.366;-0.222;2023-03-11T05:07:24;100633.41;;;21.61;40.57
75745;BME280;64359;51.366;-0.222;2023-03-11T05:08:29;100635.42;;;21.61;40.48
75745;BME280;64359;51.366;-0.222;2023-03-11T05:09:34;100638.30;;;21.61;40.50
75745;BME280;64359;51.366;-0.222;2023-03-11T05:10:40;100640.30;;;21.61;40.42
75745;BME280;64359;51.366;-0.222;2023-03-11T05:11:45;100639.80;;;21.60;40.50
75745;BME280;64359;51.366;-0.222;2023-03-11T05:12:49;100639.05;;;21.60;40.48
75745;BME280;64359;51.366;-0.222;2023-03-11T05:13:53;100640.29;;;21.60;40.51
75745;BME280;64359;51.366;-0.222;2023-03-11T05:14:58;100640.71;;;21.60;40.43
75745;BME280;64359;51.366;-0.222;2023-03-11T05:16:02;100644.60;;;21.61;40.46
75745;BME280;64359;51.366;-0.222;2023-03-11T05:17:07;100646.23;;;21.61;40.51
75745;BME280;64359;51.366;-0.222;2023-03-11T05:18:12;100645.05;;;21.60;40.48
75745;BME280;64359;51.366;-0.222;2023-03-11T05:19:17;100644.14;;;21.60;40.46
75745;BME280;64359;51.366;-0.222;2023-03-11T05:20:37;100642.92;;;21.60;40.45
75745;BME280;64359;51.366;-0.222;2023-03-11T05:21:41;100644.25;;;21.59;40.49
75745;BME280;64359;51.366;-0.222;2023-03-11T05:22:45;100646.17;;;21.60;40.52
75745;BME280;64359;51.366;-0.222;2023-03-11T05:23:50;100647.80;;;21.60;40.51
75745;BME280;64359;51.366;-0.222;2023-03-11T05:24:54;100647.09;;;21.60;40.47
75745;BME280;64359;51.366;-0.222;2023-03-11T05:25:58;100646.34;;;21.60;40.43
75745;BME280;64359;51.366;-0.222;2023-03-11T05:27:03;100647.09;;;21.60;40.47
75745;BME280;64359;51.366;-0.222;2023-03-11T05:28:08;100649.43;;;21.60;40.43
75745;BME280;64359;51.366;-0.222;2023-03-11T05:29:12;100655.85;;;21.60;40.51
75745;BME280;64359;51.366;-0.222;2023-03-11T05:30:17;100659.48;;;21.60;40.45
75745;BME280;64359;51.366;-0.222;2023-03-11T05:31:21;100657.80;;;21.61;40.57
75745;BME280;64359;51.366;-0.222;2023-03-11T05:32:25;100658.86;;;21.61;40.50
75745;BME280;64359;51.366;-0.222;2023-03-11T05:33:29;100656.48;;;21.61;40.44
75745;BME280;64359;51.366;-0.222;2023-03-11T05:34:37;100651.77;;;21.61;40.44
75745;BME280;64359;51.366;-0.222;2023-03-11T05:35:41;100656.70;;;21.61;40.37
75745;BME280;64359;51.366;-0.222;2023-03-11T05:36:46;100659.11;;;21.60;40.39